Time;durP1;ratioP1;P1;durP2;ratioP2;P2;SDS_P1;SDS_P2;PMS_P1;PMS_P2;Temp;Humidity;BMP_temperature;BMP_pressure;BME280_temperature;BME280_humidity;BME280_pressure;Samples;Min_cycle;Max_cycle;Signal;HPM_P1;HPM_P2
2022/03/17 00:00:08;;;;;;;46.70;26.65;;;;;;;10.21;71.12;101759.44;5021220;28;20462;-75
2022/03/17 00:02:34;;;;;;;48.00;25.67;;;;;;;10.22;71.35;101771.47;5020372;28;20047;-76
2022/03/17 00:05:00;;;;;;;42.15;24.63;;;;;;;10.11;71.45;101767.19;5022078;28;20044;-76
2022/03/17 00:07:25;;;;;;;40.08;24.70;;;;;;;10.19;71.27;101771.72;5023995;28;20045;-76
2022/03/17 00:09:51;;;;;;;44.40;26.23;;;;;;;10.14;71.19;101772.91;5002756;28;20087;-77
2022/03/17 00:12:16;;;;;;;45.28;26.45;;;;;;;10.19;71.18;101772.56;5017831;28;20814;-77
2022/03/17 00:14:42;;;;;;;44.28;26.20;;;;;;;10.11;71.69;101772.34;5005355;28;20040;-77
2022/03/17 00:17:08;;;;;;;43.40;24.75;;;;;;;10.12;71.62;101774.81;5022987;28;20045;-77
2022/03/17 00:19:35;;;;;;;42.88;24.85;;;;;;;10.19;71.14;101772.56;5005571;28;20048;-76
2022/03/17 00:22:01;;;;;;;41.83;25.50;;;;;;;10.20;71.18;101778.53;5024090;28;20494;-77
2022/03/17 00:24:26;;;;;;;45.90;25.63;;;;;;;10.13;71.47;101784.25;4998235;28;20091;-76
2022/03/17 00:26:52;;;;;;;46.08;26.58;;;;;;;10.18;70.95;101780.44;4996565;28;20056;-77
2022/03/17 00:29:19;;;;;;;44.75;26.08;;;;;;;10.23;70.73;101779.13;5007567;28;20045;-77
2022/03/17 00:31:44;;;;;;;47.35;26.60;;;;;;;10.21;70.74;101781.00;5005531;28;20038;-76
2022/03/17 00:34:10;;;;;;;46.67;26.13;;;;;;;10.19;70.78;101777.75;5029541;28;20482;-76
2022/03/17 00:36:36;;;;;;;44.95;25.33;;;;;;;10.16;71.06;101772.78;5016184;28;20059;-77
2022/03/17 00:39:04;;;;;;;47.78;26.55;;;;;;;10.29;70.45;101768.22;4995720;28;20132;-78
2022/03/17 00:41:29;;;;;;;42.42;24.80;;;;;;;10.22;71.02;101761.09;5024739;28;20489;-76
2022/03/17 00:43:55;;;;;;;51.90;27.08;;;;;;;10.11;71.28;101770.59;4993999;28;20082;-77
2022/03/17 00:46:21;;;;;;;41.95;25.35;;;;;;;10.21;70.79;101756.84;5024987;28;20040;-75
2022/03/17 00:48:46;;;;;;;50.08;26.88;;;;;;;10.21;70.97;101756.84;5021652;28;20126;-77
2022/03/17 00:51:11;;;;;;;50.45;28.33;;;;;;;10.15;71.00;101755.59;5007858;28;20106;-78
2022/03/17 00:53:37;;;;;;;50.03;27.52;;;;;;;10.16;71.15;101753.84;5026584;28;21334;-76
2022/03/17 00:56:04;;;;;;;44.70;26.58;;;;;;;10.11;71.38;101749.88;5023775;28;20037;-77
2022/03/17 00:58:29;;;;;;;48.65;28.88;;;;;;;10.13;70.88;101754.91;5009302;28;20041;-73
2022/03/17 01:00:56;;;;;;;45.17;27.35;;;;;;;10.11;71.56;101754.22;4999343;28;20025;-76
2022/03/17 01:03:21;;;;;;;50.53;29.13;;;;;;;10.15;71.32;101758.19;5027268;28;20540;-75
2022/03/17 01:05:46;;;;;;;46.58;28.20;;;;;;;10.07;71.51;101752.84;5026818;28;20324;-76
2022/03/17 01:08:13;;;;;;;50.67;27.58;;;;;;;10.11;71.23;101756.81;5024981;28;20028;-77
2022/03/17 01:10:39;;;;;;;43.97;25.38;;;;;;;10.19;71.43;101766.53;5007167;28;20033;-76
2022/03/17 01:13:05;;;;;;;48.90;27.77;;;;;;;10.12;71.26;101761.06;5008622;28;20034;-77
2022/03/17 01:15:31;;;;;;;49.83;28.05;;;;;;;10.18;71.06;101765.72;5023916;28;20485;-75
2022/03/17 01:17:57;;;;;;;47.35;26.80;;;;;;;10.12;71.53;101761.06;5013399;28;20164;-75
2022/03/17 01:20:23;;;;;;;49.65;28.55;;;;;;;10.11;71.42;101767.19;5007315;28;20033;-76
2022/03/17 01:22:48;;;;;;;48.22;27.35;;;;;;;10.13;71.23;101765.28;5022860;28;20033;-77
2022/03/17 01:25:14;;;;;;;47.88;26.27;;;;;;;10.08;70.96;101762.28;5025766;28;20075;-77
2022/03/17 01:27:39;;;;;;;46.70;27.13;;;;;;;10.13;71.18;101758.34;5024521;28;20171;-78
2022/03/17 01:30:09;;;;;;;48.63;26.98;;;;;;;10.16;71.22;101759.84;5022928;28;20029;-76
2022/03/17 01:32:37;;;;;;;49.90;28.27;;;;;;;10.22;70.76;101748.13;5025284;28;20735;-76
2022/03/17 01:35:05;;;;;;;46.22;27.50;;;;;;;10.12;71.38;101751.50;5012101;28;20037;-78
2022/03/17 01:37:31;;;;;;;48.47;26.95;;;;;;;10.05;71.38;101759.94;5018456;28;20041;-77
2022/03/17 01:39:56;;;;;;;47.80;26.15;;;;;;;10.11;71.65;101759.41;5007816;28;20041;-77
2022/03/17 01:42:22;;;;;;;46.17;27.35;;;;;;;10.07;71.21;101761.44;5002839;28;20033;-76
2022/03/17 01:44:48;;;;;;;48.08;27.73;;;;;;;10.12;71.14;101767.06;5012684;28;20029;-75
2022/03/17 01:47:29;;;;;;;46.28;26.63;;;;;;;10.07;71.33;101753.66;5026353;28;20040;-75
2022/03/17 01:50:08;;;;;;;45.22;26.67;;;;;;;10.08;71.71;101762.28;5024608;28;20043;-77
2022/03/17 01:52:34;;;;;;;45.97;26.70;;;;;;;10.17;71.39;101765.84;5026097;28;20082;-76
2022/03/17 01:54:59;;;;;;;50.17;27.23;;;;;;;10.03;71.88;101762.63;5012235;28;20045;-76
2022/03/17 01:57:25;;;;;;;50.72;26.65;;;;;;;10.04;71.84;101764.28;4994930;28;20128;-78
2022/03/17 01:59:51;;;;;;;52.03;26.95;;;;;;;9.99;71.79;101769.03;4997251;28;20037;-75
2022/03/17 02:02:17;;;;;;;50.25;26.55;;;;;;;10.08;71.89;101768.25;5023816;28;20032;-77
2022/03/17 02:04:43;;;;;;;46.17;26.92;;;;;;;10.11;71.63;101769.75;5027097;28;20389;-77
2022/03/17 02:07:11;;;;;;;51.55;28.25;;;;;;;10.07;71.89;101765.78;5025518;28;20120;-77
2022/03/17 02:09:37;;;;;;;47.33;26.45;;;;;;;10.16;71.35;101766.81;5010289;28;20484;-78
2022/03/17 02:15:00;;;;;;;48.22;26.30;;;;;;;10.05;71.90;101771.09;5021458;28;20481;-77
2022/03/17 02:17:27;;;;;;;49.22;28.00;;;;;;;10.02;72.28;101770.53;5015780;28;20040;-78
2022/03/17 02:19:53;;;;;;;51.33;28.30;;;;;;;10.04;72.40;101769.47;5032692;28;20045;-77
2022/03/17 02:22:22;;;;;;;48.25;28.58;;;;;;;10.07;72.52;101764.00;5025762;28;20033;-78
2022/03/17 02:27:40;;;;;;;54.58;28.75;;;;;;;10.13;72.28;101763.53;5011566;28;20536;-76
2022/03/17 02:30:08;;;;;;;50.53;28.20;;;;;;;10.12;72.17;101761.06;5007642;28;20089;-78
2022/03/17 02:32:34;;;;;;;56.55;30.02;;;;;;;10.08;72.18;101767.44;5014331;28;21653;-77
2022/03/17 02:35:12;;;;;;;49.10;29.60;;;;;;;10.05;72.46;101765.09;5016131;28;20033;-77
2022/03/17 02:37:38;;;;;;;52.83;29.40;;;;;;;10.08;72.38;101764.84;5017100;28;20037;-77
2022/03/17 02:40:06;;;;;;;48.45;28.05;;;;;;;10.15;72.11;101763.38;5029400;28;20035;-76
2022/03/17 02:42:32;;;;;;;52.75;30.25;;;;;;;10.15;72.49;101763.38;5015018;28;20107;-77
2022/03/17 02:45:01;;;;;;;54.50;30.75;;;;;;;10.18;71.79;101760.53;5011990;28;20033;-75
2022/03/17 02:47:27;;;;;;;56.08;30.55;;;;;;;10.11;72.42;101762.00;5028077;28;20034;-77
2022/03/17 02:49:55;;;;;;;55.03;29.85;;;;;;;10.07;72.31;101752.84;5025501;28;20040;-77
2022/03/17 02:52:25;;;;;;;53.42;30.50;;;;;;;10.02;72.80;101762.75;5009648;28;20033;-77
2022/03/17 02:54:53;;;;;;;55.00;30.73;;;;;;;10.02;72.79;101757.56;5024766;28;20052;-77
2022/03/17 02:57:19;;;;;;;52.00;29.65;;;;;;;10.10;72.38;101756.00;5009102;28;20029;-77
2022/03/17 02:59:46;;;;;;;55.70;30.50;;;;;;;10.03;72.79;101761.81;4998204;28;20155;-77
2022/03/17 03:02:13;;;;;;;56.55;31.85;;;;;;;10.04;73.39;101756.53;5025763;28;20037;-76
2022/03/17 03:04:39;;;;;;;52.03;29.33;;;;;;;10.13;72.66;101760.94;5010133;28;20022;-78
2022/03/17 03:07:06;;;;;;;50.10;29.63;;;;;;;10.11;72.91;101767.19;5006716;28;20882;-76
2022/03/17 03:09:32;;;;;;;55.72;31.25;;;;;;;10.06;72.78;101774.53;5009920;28;20033;-77
2022/03/17 03:11:58;;;;;;;57.03;31.73;;;;;;;10.06;73.32;101783.13;5029566;28;20033;-77
2022/03/17 03:14:24;;;;;;;58.40;32.88;;;;;;;9.97;73.59;101778.72;5011726;28;20079;-77
2022/03/17 03:16:50;;;;;;;53.35;30.58;;;;;;;9.99;73.16;101786.34;5025708;28;20025;-77
2022/03/17 03:19:16;;;;;;;56.50;30.45;;;;;;;10.04;73.49;101795.38;5016166;28;20044;-78
2022/03/17 03:21:43;;;;;;;54.55;28.92;;;;;;;9.89;74.07;101794.09;5010771;28;20029;-78
2022/03/17 03:24:12;;;;;;;60.80;32.35;;;;;;;9.88;73.97;101801.00;5012271;28;20049;-78
2022/03/17 03:26:40;;;;;;;53.30;30.08;;;;;;;9.92;74.10;101811.94;5013679;28;20040;-78
2022/03/17 03:29:49;;;;;;;53.95;31.25;;;;;;;9.84;74.18;101806.59;5011397;28;20049;-77
2022/03/17 03:31:58;;;;;;;53.70;29.48;;;;;;;9.83;74.50;101818.72;5011748;28;20566;-78
2022/03/17 03:34:25;;;;;;;51.95;29.88;;;;;;;9.85;74.77;101819.41;5024308;28;20029;-78
2022/03/17 03:39:36;;;;;;;51.83;29.05;;;;;;;9.92;74.82;101828.31;5011542;28;20120;-75
2022/03/17 03:42:03;;;;;;;49.25;27.88;;;;;;;9.92;75.38;101819.72;5026355;28;20091;-79
2022/03/17 03:44:29;;;;;;;50.47;28.50;;;;;;;9.92;75.91;101825.72;4992900;28;20052;-77
2022/03/17 03:46:55;;;;;;;45.53;27.20;;;;;;;9.93;76.13;101836.91;4996289;28;20487;-78
2022/03/17 03:49:21;;;;;;;53.92;28.52;;;;;;;9.95;77.20;101837.59;5007997;28;20033;-77
2022/03/17 03:51:47;;;;;;;45.97;26.45;;;;;;;9.88;77.65;101841.66;5011661;28;20203;-78
2022/03/17 03:54:18;;;;;;;48.75;27.85;;;;;;;9.89;78.03;101843.31;4998094;28;20128;-75
2022/03/17 03:56:49;;;;;;;50.38;27.52;;;;;;;9.78;79.36;101851.94;5029257;28;20037;-76
2022/03/17 04:01:44;;;;;;;52.28;27.60;;;;;;;9.70;80.85;101857.75;5024878;28;20040;-77
2022/03/17 04:04:14;;;;;;;48.05;26.63;;;;;;;9.67;81.47;101870.94;5010915;28;20485;-77
2022/03/17 04:06:41;;;;;;;52.70;29.05;;;;;;;9.71;82.52;101863.75;5007183;28;20188;-76
2022/03/17 04:09:07;;;;;;;48.50;27.42;;;;;;;9.68;83.04;101874.34;5028351;28;20040;-78
2022/03/17 04:11:32;;;;;;;52.65;27.98;;;;;;;9.69;83.48;101884.59;5024053;28;20033;-77
2022/03/17 04:13:58;;;;;;;51.38;27.48;;;;;;;9.61;84.46;101878.41;5028031;28;20103;-76
2022/03/17 04:16:23;;;;;;;45.25;25.20;;;;;;;9.55;85.12;101887.47;4997578;28;20032;-79
2022/03/17 04:18:49;;;;;;;48.55;27.77;;;;;;;9.55;85.41;101893.47;5018228;28;20040;-76
2022/03/17 04:21:14;;;;;;;47.03;27.35;;;;;;;9.53;85.87;101894.50;5009086;28;20033;-77
2022/03/17 04:23:40;;;;;;;49.88;28.70;;;;;;;9.47;87.04;101895.00;5010440;28;20037;-78
2022/03/17 04:26:05;;;;;;;48.90;27.40;;;;;;;9.47;87.57;101895.81;5010411;28;20049;-78
2022/03/17 04:28:30;;;;;;;52.70;29.50;;;;;;;9.46;87.95;101899.38;4993994;28;20029;-76
2022/03/17 04:30:56;;;;;;;50.38;27.08;;;;;;;9.44;88.56;101906.44;5024314;28;20112;-77
2022/03/17 04:33:22;;;;;;;50.40;27.88;;;;;;;9.41;88.90;101911.03;5011554;28;20037;-78
2022/03/17 04:35:47;;;;;;;50.63;29.05;;;;;;;9.40;89.24;101912.81;5022841;28;20549;-77
2022/03/17 04:38:12;;;;;;;48.63;28.10;;;;;;;9.33;90.04;101914.22;4994887;28;20068;-76
2022/03/17 04:40:38;;;;;;;49.58;27.58;;;;;;;9.30;90.86;101924.81;5022632;28;20025;-78
2022/03/17 04:43:03;;;;;;;47.40;28.30;;;;;;;9.29;91.03;101936.13;5012040;28;20415;-77
2022/03/17 04:45:30;;;;;;;46.85;27.02;;;;;;;9.29;91.29;101931.78;5006652;28;20133;-78
2022/03/17 04:47:55;;;;;;;54.47;28.77;;;;;;;9.28;91.95;101932.69;5008841;28;20033;-76
2022/03/17 04:50:21;;;;;;;46.50;26.92;;;;;;;9.28;91.83;101943.06;5025396;28;20033;-78
2022/03/17 04:55:30;;;;;;;57.95;29.55;;;;;;;9.28;92.72;101957.75;5024249;28;20093;-78
2022/03/17 04:57:57;;;;;;;53.25;30.08;;;;;;;9.28;93.10;101963.75;5009851;28;20052;-76
2022/03/17 05:00:23;;;;;;;56.45;29.75;;;;;;;9.34;93.50;101970.22;5021990;28;20096;-77
2022/03/17 05:02:48;;;;;;;58.38;29.27;;;;;;;9.30;94.22;101985.16;5001678;28;20033;-77
2022/03/17 05:05:13;;;;;;;55.08;29.45;;;;;;;9.33;95.87;101997.06;5012370;28;20038;-78
2022/03/17 05:07:39;;;;;;;60.25;29.00;;;;;;;9.41;96.86;102005.06;5030128;28;20041;-78
2022/03/17 05:10:05;;;;;;;59.63;28.85;;;;;;;9.34;97.67;102022.84;5010760;28;20044;-78
2022/03/17 05:12:30;;;;;;;51.38;26.25;;;;;;;9.45;98.25;102021.19;5026962;28;20037;-77
2022/03/17 05:14:56;;;;;;;41.42;20.80;;;;;;;9.46;97.54;102039.19;5027736;28;20042;-77
2022/03/17 05:17:21;;;;;;;34.72;19.88;;;;;;;9.30;97.96;102029.16;5010409;28;20044;-78
2022/03/17 05:19:47;;;;;;;40.80;18.95;;;;;;;9.32;97.98;102047.19;5026795;28;20435;-78
2022/03/17 05:22:12;;;;;;;32.35;19.58;;;;;;;9.29;98.03;102060.38;5017860;28;20568;-78
2022/03/17 05:24:38;;;;;;;39.83;20.33;;;;;;;9.10;98.34;102053.19;5026318;28;20639;-77
2022/03/17 05:27:03;;;;;;;40.78;21.77;;;;;;;9.10;98.32;102056.59;5010993;28;20029;-78
2022/03/17 05:29:29;;;;;;;42.85;22.20;;;;;;;9.10;97.91;102074.69;5011349;28;20055;-76
2022/03/17 05:31:55;;;;;;;42.30;22.77;;;;;;;9.07;98.04;102079.28;5025984;28;20123;-78
2022/03/17 05:34:20;;;;;;;49.03;24.63;;;;;;;9.02;98.03;102079.59;5014944;28;20501;-77
2022/03/17 05:36:45;;;;;;;46.70;25.05;;;;;;;8.99;97.64;102097.97;4997042;28;20033;-77
2022/03/17 05:39:11;;;;;;;46.80;25.73;;;;;;;8.92;98.13;102104.53;5012269;28;20033;-78
2022/03/17 05:41:36;;;;;;;49.45;27.10;;;;;;;8.85;98.33;102113.66;4993752;28;20044;-77
2022/03/17 05:44:02;;;;;;;53.80;27.05;;;;;;;8.87;98.28;102128.16;5028567;28;20386;-78
2022/03/17 05:46:28;;;;;;;53.58;27.30;;;;;;;8.82;98.25;102130.25;5011600;28;20520;-78
2022/03/17 05:48:54;;;;;;;57.35;28.33;;;;;;;8.83;98.23;102131.88;5027321;28;20041;-78
2022/03/17 05:51:20;;;;;;;58.08;27.88;;;;;;;8.72;98.26;102142.19;5022311;28;20030;-77
2022/03/17 05:53:45;;;;;;;52.53;27.17;;;;;;;8.73;97.95;102138.66;5014153;28;20033;-77
2022/03/17 05:56:10;;;;;;;54.50;27.60;;;;;;;8.68;97.58;102144.19;4993148;28;21067;-78
2022/03/17 05:58:36;;;;;;;56.42;27.27;;;;;;;8.70;97.83;102154.41;5014747;28;20065;-76
2022/03/17 06:01:02;;;;;;;49.55;26.17;;;;;;;8.58;97.99;102163.88;5027292;28;20025;-79
2022/03/17 06:03:28;;;;;;;58.33;25.85;;;;;;;8.43;97.99;102177.88;5008570;28;20045;-76
2022/03/17 06:05:53;;;;;;;50.78;24.70;;;;;;;8.48;98.01;102175.81;5021259;28;20285;-77
2022/03/17 06:08:19;;;;;;;51.70;23.17;;;;;;;8.50;97.86;102185.09;5005748;28;20060;-78
2022/03/17 06:10:44;;;;;;;48.72;23.17;;;;;;;8.43;97.19;102199.38;5009425;28;20044;-78
2022/03/17 06:13:10;;;;;;;42.13;21.17;;;;;;;8.46;97.09;102206.94;5033753;28;20498;-77
2022/03/17 06:15:35;;;;;;;43.75;21.23;;;;;;;8.36;97.31;102206.72;5009351;28;20045;-78
2022/03/17 06:18:05;;;;;;;38.88;19.50;;;;;;;8.39;97.19;102219.41;5004749;28;20037;-77
2022/03/17 06:20:34;;;;;;;38.50;19.33;;;;;;;8.38;96.85;102220.38;5025701;28;20037;-77
2022/03/17 06:23:01;;;;;;;34.03;17.92;;;;;;;8.32;96.46;102231.09;5027958;28;20111;-78
2022/03/17 06:25:28;;;;;;;39.10;19.83;;;;;;;8.31;96.43;102242.41;4993066;28;20033;-78
2022/03/17 06:27:54;;;;;;;34.38;18.70;;;;;;;8.27;96.23;102240.97;5012668;28;20501;-76
2022/03/17 06:30:23;;;;;;;35.35;17.75;;;;;;;8.22;96.60;102243.03;5007996;28;20037;-76
2022/03/17 06:32:50;;;;;;;34.40;16.48;;;;;;;8.21;96.53;102251.69;5021091;28;20231;-78
2022/03/17 06:35:18;;;;;;;30.15;16.92;;;;;;;8.16;96.46;102266.72;5027708;28;20041;-78
2022/03/17 06:37:57;;;;;;;32.60;17.08;;;;;;;8.08;95.87;102263.81;5014112;28;20072;-75
2022/03/17 06:40:24;;;;;;;29.45;15.40;;;;;;;8.07;95.23;102272.50;5007084;28;20025;-76
2022/03/17 06:42:51;;;;;;;34.65;16.38;;;;;;;8.03;94.08;102277.03;5023113;28;20652;-78
2022/03/17 06:45:17;;;;;;;26.00;14.57;;;;;;;7.99;93.66;102291.09;5011935;28;20036;-78
2022/03/17 06:47:42;;;;;;;30.15;15.40;;;;;;;7.98;92.83;102298.00;5027163;28;20545;-78
2022/03/17 06:50:09;;;;;;;28.85;14.48;;;;;;;8.01;92.31;102306.50;5006393;28;20117;-77
2022/03/17 06:52:35;;;;;;;27.70;14.48;;;;;;;7.97;91.98;102317.03;5010948;28;20033;-78
2022/03/17 06:55:01;;;;;;;33.35;15.88;;;;;;;8.00;91.97;102308.22;4995954;28;20506;-78
2022/03/17 06:57:27;;;;;;;32.20;16.40;;;;;;;8.05;91.58;102329.44;5015108;28;20087;-78
2022/03/17 06:59:53;;;;;;;34.03;16.50;;;;;;;8.08;91.03;102325.81;5008428;28;20030;-79
2022/03/17 07:02:19;;;;;;;35.30;17.42;;;;;;;7.97;91.11;102329.13;5013777;28;20044;-77
2022/03/17 07:04:44;;;;;;;39.40;16.63;;;;;;;7.95;90.99;102339.56;5026190;28;20048;-77
2022/03/17 07:07:10;;;;;;;35.17;17.27;;;;;;;8.03;90.97;102345.97;4994905;28;20041;-77
2022/03/17 07:09:36;;;;;;;43.88;17.08;;;;;;;8.06;90.68;102356.94;5005700;28;20025;-77
2022/03/17 07:12:03;;;;;;;32.83;17.38;;;;;;;7.88;90.63;102353.78;5022143;28;20717;-77
2022/03/17 07:14:28;;;;;;;32.45;17.33;;;;;;;7.88;90.81;102369.28;5004128;28;20116;-78
2022/03/17 07:16:54;;;;;;;40.22;16.85;;;;;;;7.79;90.55;102373.28;5015699;28;20035;-78
2022/03/17 07:19:20;;;;;;;42.58;16.67;;;;;;;7.76;89.75;102385.56;5001841;28;20036;-79
2022/03/17 07:21:45;;;;;;;25.17;13.15;;;;;;;7.78;89.25;102388.91;5007905;28;20424;-75
2022/03/17 07:24:11;;;;;;;24.38;10.95;;;;;;;7.69;87.95;102385.16;5008172;28;20087;-76
2022/03/17 07:26:37;;;;;;;20.02;9.50;;;;;;;7.68;87.97;102393.81;5022774;28;20105;-77
2022/03/17 07:29:03;;;;;;;22.60;9.13;;;;;;;7.69;87.41;102408.38;5025672;28;20036;-77
2022/03/17 07:31:29;;;;;;;16.42;8.27;;;;;;;7.63;87.17;102397.59;5019268;28;20033;-78
2022/03/17 07:33:54;;;;;;;27.58;8.05;;;;;;;7.62;87.17;102408.88;4999622;28;20056;-79
2022/03/17 07:36:21;;;;;;;24.40;8.10;;;;;;;7.56;87.63;102417.84;5009102;28;20132;-77
2022/03/17 07:38:47;;;;;;;16.85;8.30;;;;;;;7.63;86.79;102429.44;5010836;28;20091;-76
2022/03/17 07:41:14;;;;;;;27.55;9.98;;;;;;;7.62;85.83;102425.19;5011485;28;20433;-77
2022/03/17 07:43:41;;;;;;;22.95;6.88;;;;;;;7.73;85.76;102443.41;4995933;28;20036;-78
2022/03/17 07:46:26;;;;;;;15.48;6.50;;;;;;;7.62;85.62;102439.88;5008361;28;20099;-77
2022/03/17 07:49:12;;;;;;;19.42;5.82;;;;;;;7.66;85.01;102452.47;5012108;28;20048;-76
2022/03/17 07:51:39;;;;;;;18.70;6.32;;;;;;;7.71;85.05;102450.44;5019496;28;20029;-76
2022/03/17 07:54:05;;;;;;;16.02;4.68;;;;;;;7.74;84.45;102457.16;4995560;28;20455;-77
2022/03/17 07:56:31;;;;;;;10.10;4.75;;;;;;;7.61;84.37;102464.84;4995267;28;20033;-77
2022/03/17 07:58:56;;;;;;;17.05;4.80;;;;;;;7.72;83.87;102467.59;5024627;28;20037;-77
2022/03/17 08:01:25;;;;;;;15.63;4.85;;;;;;;7.72;83.76;102471.91;5015160;28;20091;-77
2022/03/17 08:03:53;;;;;;;17.60;4.57;;;;;;;7.78;83.11;102480.13;5031941;28;20044;-76
2022/03/17 08:06:19;;;;;;;13.57;4.82;;;;;;;7.75;83.54;102487.22;4991237;28;20649;-77
2022/03/17 08:08:46;;;;;;;13.82;4.30;;;;;;;7.73;83.58;102491.66;5024342;28;20075;-77
2022/03/17 08:11:12;;;;;;;13.65;4.78;;;;;;;7.75;83.79;102495.78;5003134;28;20045;-77
2022/03/17 08:13:38;;;;;;;13.27;4.20;;;;;;;7.75;83.79;102498.38;5009050;28;20037;-78
2022/03/17 08:16:04;;;;;;;11.27;4.38;;;;;;;7.73;84.25;102504.56;5024813;28;20033;-77
2022/03/17 08:18:31;;;;;;;10.13;4.13;;;;;;;7.84;84.38;102501.31;5029633;28;20037;-76
2022/03/17 08:20:57;;;;;;;9.85;4.00;;;;;;;7.78;83.42;102505.94;5013109;28;20041;-78
2022/03/17 08:23:22;;;;;;;14.63;4.20;;;;;;;7.84;83.84;102509.06;5033767;28;20028;-78
2022/03/17 08:25:49;;;;;;;9.68;4.03;;;;;;;7.86;84.00;102514.97;5024780;28;20036;-78
2022/03/17 08:28:17;;;;;;;15.32;4.47;;;;;;;7.90;83.34;102525.00;4996143;28;20565;-77
2022/03/17 08:30:43;;;;;;;10.23;3.78;;;;;;;7.94;83.17;102526.47;5031072;28;20052;-77
2022/03/17 08:33:08;;;;;;;13.18;3.47;;;;;;;7.94;82.59;102534.19;5013425;28;20026;-77
2022/03/17 08:35:34;;;;;;;8.82;2.85;;;;;;;7.87;81.76;102537.28;5010727;28;20053;-77
2022/03/17 08:37:59;;;;;;;11.23;3.42;;;;;;;7.85;82.69;102539.94;5015414;28;20034;-76
2022/03/17 08:40:25;;;;;;;9.63;2.80;;;;;;;7.92;82.41;102550.75;5015418;28;20038;-76
2022/03/17 08:42:51;;;;;;;12.98;2.92;;;;;;;8.04;81.73;102552.53;5009472;28;20049;-77
2022/03/17 08:50:52;;;;;;;13.95;2.50;;;;;;;8.27;80.31;102563.16;5036171;28;20093;-77
2022/03/17 08:53:17;;;;;;;5.07;2.42;;;;;;;8.22;80.22;102578.97;5014398;28;20080;-77
2022/03/17 08:55:44;;;;;;;8.68;2.28;;;;;;;8.31;79.97;102570.66;5021918;28;20029;-77
2022/03/17 08:58:10;;;;;;;9.43;2.00;;;;;;;8.31;79.38;102575.81;5014190;28;20056;-78
2022/03/17 09:00:36;;;;;;;15.00;2.22;;;;;;;8.28;79.69;102586.34;4999352;28;20025;-77
2022/03/17 09:03:05;;;;;;;15.32;2.67;;;;;;;8.25;79.57;102591.72;5032901;28;20029;-78
2022/03/17 09:05:33;;;;;;;8.38;3.10;;;;;;;8.26;79.05;102595.13;5016170;28;20041;-77
2022/03/17 09:07:59;;;;;;;13.05;4.82;;;;;;;8.21;79.65;102595.41;5005056;28;20034;-78
2022/03/17 09:10:25;;;;;;;15.43;4.95;;;;;;;8.26;79.67;102602.88;5014894;28;20121;-76
2022/03/17 09:12:55;;;;;;;6.28;2.90;;;;;;;8.29;80.43;102606.09;5021817;28;20140;-76
2022/03/17 09:15:21;;;;;;;8.82;3.03;;;;;;;8.18;79.75;102606.78;5031765;28;20041;-78
2022/03/17 09:17:47;;;;;;;20.95;3.65;;;;;;;8.30;80.10;102609.50;5030729;28;20318;-76
2022/03/17 09:20:15;;;;;;;7.95;2.65;;;;;;;8.33;78.62;102615.31;5030165;28;20109;-78
2022/03/17 09:22:42;;;;;;;8.18;2.10;;;;;;;8.24;78.28;102621.06;5013618;28;20040;-78
2022/03/17 09:25:08;;;;;;;9.32;2.10;;;;;;;8.11;78.39;102626.16;5021026;28;20041;-76
2022/03/17 09:27:34;;;;;;;8.55;2.95;;;;;;;8.17;78.92;102630.13;5014525;28;20171;-77
2022/03/17 09:29:59;;;;;;;8.90;2.85;;;;;;;8.08;79.07;102638.44;5016012;28;20520;-76
2022/03/17 09:32:25;;;;;;;11.98;3.38;;;;;;;8.12;79.22;102637.34;5019358;28;20038;-77
2022/03/17 09:34:51;;;;;;;9.63;2.60;;;;;;;8.07;79.13;102645.38;4989331;28;20390;-78
2022/03/17 09:37:17;;;;;;;8.30;2.33;;;;;;;8.06;79.34;102642.88;5012510;28;20110;-78
2022/03/17 09:39:46;;;;;;;5.60;2.35;;;;;;;8.05;79.53;102647.22;5019495;28;20111;-76
2022/03/17 09:42:17;;;;;;;11.35;1.83;;;;;;;8.01;79.24;102650.09;5027583;28;20091;-77
2022/03/17 09:44:47;;;;;;;6.55;2.13;;;;;;;7.99;79.84;102655.34;5012167;28;20040;-77
2022/03/17 09:47:18;;;;;;;15.10;2.85;;;;;;;7.93;80.34;102659.16;4999637;28;20503;-74
2022/03/17 09:49:46;;;;;;;13.98;2.40;;;;;;;8.07;80.38;102670.38;4993576;28;20061;-77
2022/03/17 09:52:17;;;;;;;7.72;2.33;;;;;;;8.16;80.21;102672.41;5026033;28;20037;-77
2022/03/17 09:54:44;;;;;;;15.15;2.97;;;;;;;8.12;79.80;102670.94;5025764;28;20037;-76
2022/03/17 09:57:10;;;;;;;11.05;2.30;;;;;;;8.18;79.24;102676.53;5025281;28;20045;-76
2022/03/17 09:59:35;;;;;;;10.18;2.38;;;;;;;8.25;79.93;102679.59;5016661;28;20037;-77
2022/03/17 10:02:02;;;;;;;13.02;1.85;;;;;;;8.25;79.38;102676.16;4993480;28;20034;-77
2022/03/17 10:04:39;;;;;;;11.05;2.05;;;;;;;8.11;79.02;102684.78;5014173;28;20477;-77
2022/03/17 10:07:04;;;;;;;13.13;2.30;;;;;;;8.16;79.42;102691.31;5014919;28;20139;-77
2022/03/17 10:09:30;;;;;;;6.72;2.55;;;;;;;8.24;78.25;102695.19;5017638;28;20433;-77
2022/03/17 10:12:01;;;;;;;7.53;2.10;;;;;;;8.46;78.11;102686.97;5008731;28;20334;-77
2022/03/17 10:14:39;;;;;;;7.93;4.00;;;;;;;8.53;77.22;102694.25;5014989;28;20067;-77
2022/03/17 10:17:06;;;;;;;10.65;2.15;;;;;;;8.62;77.27;102694.59;5033161;28;20038;-78
2022/03/17 10:19:33;;;;;;;13.65;2.67;;;;;;;8.74;77.75;102702.41;5011318;28;20045;-76
2022/03/17 10:22:09;;;;;;;10.82;2.97;;;;;;;8.84;77.01;102704.41;5027043;28;20034;-78
2022/03/17 10:24:36;;;;;;;11.48;2.00;;;;;;;9.01;76.40;102719.66;5029063;28;20045;-78
2022/03/17 10:27:04;;;;;;;10.60;1.98;;;;;;;8.96;75.40;102719.94;4994282;28;20029;-76
2022/03/17 10:29:30;;;;;;;13.98;3.42;;;;;;;8.98;74.94;102719.84;4988869;28;20073;-76
2022/03/17 10:32:14;;;;;;;9.70;2.00;;;;;;;8.91;73.61;102721.16;5013837;28;20038;-78
2022/03/17 10:34:46;;;;;;;12.95;2.35;;;;;;;9.02;74.30;102736.00;5000514;28;20033;-76
2022/03/17 10:37:17;;;;;;;6.95;1.50;;;;;;;9.01;74.45;102732.59;5008790;28;20141;-79
2022/03/17 10:39:45;;;;;;;8.85;1.70;;;;;;;9.15;74.54;102739.47;5020932;28;20388;-77
2022/03/17 10:42:30;;;;;;;12.40;2.28;;;;;;;8.88;74.77;102742.91;5028134;28;20049;-76
2022/03/17 10:44:58;;;;;;;10.45;2.13;;;;;;;8.82;74.89;102743.31;5002846;28;20041;-78
2022/03/17 10:47:24;;;;;;;13.80;2.08;;;;;;;8.81;75.22;102745.97;5007745;28;20025;-78
2022/03/17 10:50:00;;;;;;;12.52;1.40;;;;;;;8.77;75.36;102751.34;5008784;28;20141;-77
2022/03/17 10:52:41;;;;;;;17.90;2.70;;;;;;;8.80;75.35;102758.09;5019918;28;20124;-78
2022/03/17 10:55:11;;;;;;;14.38;2.53;;;;;;;8.81;75.78;102764.91;5006672;28;20120;-77
2022/03/17 10:57:37;;;;;;;10.30;2.55;;;;;;;8.73;76.14;102767.16;5003736;28;20033;-78
2022/03/17 11:00:09;;;;;;;8.95;2.03;;;;;;;8.70;75.68;102769.94;5025421;28;20043;-77
2022/03/17 11:02:37;;;;;;;10.65;2.70;;;;;;;8.68;75.33;102776.94;4994534;28;20115;-75
2022/03/17 11:05:06;;;;;;;18.67;2.55;;;;;;;8.79;74.84;102781.47;5002847;28;20125;-78
2022/03/17 11:07:32;;;;;;;10.07;2.95;;;;;;;9.02;73.81;102777.41;5024303;28;20037;-77
2022/03/17 11:10:05;;;;;;;15.45;2.70;;;;;;;9.09;74.65;102776.94;5026119;28;20041;-77
2022/03/17 11:12:30;;;;;;;16.83;2.97;;;;;;;9.33;73.24;102771.13;5007937;28;20029;-77
2022/03/17 11:14:56;;;;;;;12.85;2.47;;;;;;;9.46;71.27;102777.16;5003891;28;20549;-77
2022/03/17 11:17:38;;;;;;;13.85;3.22;;;;;;;9.66;69.86;102773.25;4995302;28;20412;-77
2022/03/17 11:20:10;;;;;;;14.20;2.72;;;;;;;9.80;71.13;102785.28;5007835;28;20033;-77
2022/03/17 11:22:36;;;;;;;10.48;2.10;;;;;;;9.90;70.31;102788.91;5023570;28;20095;-78
2022/03/17 11:25:23;;;;;;;12.70;2.88;;;;;;;9.98;68.53;102801.34;5007032;28;20325;-78
2022/03/17 11:27:55;;;;;;;16.10;3.40;;;;;;;9.85;67.81;102795.31;4986652;28;20037;-78
2022/03/17 11:30:21;;;;;;;18.08;3.20;;;;;;;9.89;67.56;102795.03;5019643;28;20061;-78
2022/03/17 11:32:54;;;;;;;14.20;3.80;;;;;;;9.93;67.94;102793.88;5003007;28;20037;-79
2022/03/17 11:35:22;;;;;;;19.42;3.53;;;;;;;9.89;68.39;102802.81;5017555;28;20025;-79
2022/03/17 11:37:47;;;;;;;15.55;2.97;;;;;;;10.03;68.35;102804.47;5000628;28;20084;-79